sensor_id;sensor_type;location;lat;lon;timestamp;P1;durP1;ratioP1;P2;durP2;ratioP2
17614;SDS011;8926;49.720;6.576;2022-11-15T00:00:15;5.27;;;4.87;;
17614;SDS011;8926;49.720;6.576;2022-11-15T00:02:41;6.30;;;5.90;;
17614;SDS011;8926;49.720;6.576;2022-11-15T00:05:06;5.37;;;5.00;;
17614;SDS011;8926;49.720;6.576;2022-11-15T00:07:32;6.40;;;5.80;;
17614;SDS011;8926;49.720;6.576;2022-11-15T00:09:57;5.10;;;4.70;;
17614;SDS011;8926;49.720;6.576;2022-11-15T00:12:22;4.77;;;4.47;;
17614;SDS011;8926;49.720;6.576;2022-11-15T00:14:47;4.27;;;4.00;;
17614;SDS011;8926;49.720;6.576;2022-11-15T00:17:13;5.90;;;5.40;;
17614;SDS011;8926;49.720;6.576;2022-11-15T00:19:38;6.10;;;5.57;;
17614;SDS011;8926;49.720;6.576;2022-11-15T00:22:03;6.73;;;6.23;;
17614;SDS011;8926;49.720;6.576;2022-11-15T00:24:29;6.97;;;6.47;;
17614;SDS011;8926;49.720;6.576;2022-11-15T00:26:54;7.30;;;6.70;;
17614;SDS011;8926;49.720;6.576;2022-11-15T00:29:19;6.47;;;5.97;;
17614;SDS011;8926;49.720;6.576;2022-11-15T00:31:44;5.80;;;5.40;;
17614;SDS011;8926;49.720;6.576;2022-11-15T00:34:10;6.20;;;5.73;;
17614;SDS011;8926;49.720;6.576;2022-11-15T00:36:35;7.57;;;6.97;;
17614;SDS011;8926;49.720;6.576;2022-11-15T00:39:02;6.33;;;5.90;;
17614;SDS011;8926;49.720;6.576;2022-11-15T00:41:29;7.20;;;6.60;;
17614;SDS011;8926;49.720;6.576;2022-11-15T00:43:54;6.87;;;6.27;;
17614;SDS011;8926;49.720;6.576;2022-11-15T00:46:20;8.60;;;7.80;;
17614;SDS011;8926;49.720;6.576;2022-11-15T00:48:45;7.50;;;6.90;;
17614;SDS011;8926;49.720;6.576;2022-11-15T00:51:10;8.40;;;7.80;;
17614;SDS011;8926;49.720;6.576;2022-11-15T00:53:36;6.20;;;5.80;;
17614;SDS011;8926;49.720;6.576;2022-11-15T00:56:01;7.00;;;6.50;;
17614;SDS011;8926;49.720;6.576;2022-11-15T00:58:27;6.53;;;6.00;;
17614;SDS011;8926;49.720;6.576;2022-11-15T01:00:52;6.93;;;6.37;;
17614;SDS011;8926;49.720;6.576;2022-11-15T01:03:17;5.47;;;5.07;;
17614;SDS011;8926;49.720;6.576;2022-11-15T01:05:42;5.50;;;5.10;;
17614;SDS011;8926;49.720;6.576;2022-11-15T01:08:14;10.77;;;9.67;;
17614;SDS011;8926;49.720;6.576;2022-11-15T01:10:40;7.23;;;6.63;;
17614;SDS011;8926;49.720;6.576;2022-11-15T01:13:06;6.83;;;6.33;;
17614;SDS011;8926;49.720;6.576;2022-11-15T01:15:31;6.07;;;5.67;;
17614;SDS011;8926;49.720;6.576;2022-11-15T01:17:56;6.07;;;5.67;;
17614;SDS011;8926;49.720;6.576;2022-11-15T01:20:21;7.00;;;6.53;;
17614;SDS011;8926;49.720;6.576;2022-11-15T01:22:47;5.63;;;5.23;;
17614;SDS011;8926;49.720;6.576;2022-11-15T01:25:12;5.80;;;5.40;;
17614;SDS011;8926;49.720;6.576;2022-11-15T01:27:37;6.13;;;5.63;;
17614;SDS011;8926;49.720;6.576;2022-11-15T01:30:03;5.37;;;5.00;;
17614;SDS011;8926;49.720;6.576;2022-11-15T01:32:29;4.63;;;4.33;;
17614;SDS011;8926;49.720;6.576;2022-11-15T01:34:54;4.50;;;4.20;;
17614;SDS011;8926;49.720;6.576;2022-11-15T01:37:19;3.97;;;3.67;;
17614;SDS011;8926;49.720;6.576;2022-11-15T01:39:45;4.50;;;4.10;;
17614;SDS011;8926;49.720;6.576;2022-11-15T01:42:13;4.47;;;4.10;;
17614;SDS011;8926;49.720;6.576;2022-11-15T01:44:43;4.20;;;3.90;;
17614;SDS011;8926;49.720;6.576;2022-11-15T01:47:14;4.40;;;4.10;;
17614;SDS011;8926;49.720;6.576;2022-11-15T01:50:17;4.20;;;3.90;;
17614;SDS011;8926;49.720;6.576;2022-11-15T01:52:37;3.37;;;3.17;;
17614;SDS011;8926;49.720;6.576;2022-11-15T01:55:09;3.77;;;3.53;;
17614;SDS011;8926;49.720;6.576;2022-11-15T01:57:39;3.73;;;3.53;;
17614;SDS011;8926;49.720;6.576;2022-11-15T02:00:07;3.67;;;3.47;;
17614;SDS011;8926;49.720;6.576;2022-11-15T02:02:33;3.20;;;3.00;;
17614;SDS011;8926;49.720;6.576;2022-11-15T02:05:01;4.03;;;3.73;;
17614;SDS011;8926;49.720;6.576;2022-11-15T02:07:26;3.67;;;3.40;;
17614;SDS011;8926;49.720;6.576;2022-11-15T02:09:54;4.57;;;4.27;;
17614;SDS011;8926;49.720;6.576;2022-11-15T02:12:21;3.97;;;3.67;;
17614;SDS011;8926;49.720;6.576;2022-11-15T02:14:49;5.80;;;4.07;;
17614;SDS011;8926;49.720;6.576;2022-11-15T02:22:57;4.37;;;4.07;;
17614;SDS011;8926;49.720;6.576;2022-11-15T02:25:37;5.37;;;4.70;;
17614;SDS011;8926;49.720;6.576;2022-11-15T02:30:59;4.50;;;4.10;;
17614;SDS011;8926;49.720;6.576;2022-11-15T02:42:12;4.33;;;4.03;;
17614;SDS011;8926;49.720;6.576;2022-11-15T02:45:02;5.17;;;3.53;;
17614;SDS011;8926;49.720;6.576;2022-11-15T02:47:33;3.17;;;2.97;;
17614;SDS011;8926;49.720;6.576;2022-11-15T02:50:13;3.63;;;3.37;;
17614;SDS011;8926;49.720;6.576;2022-11-15T02:52:44;3.20;;;3.00;;
17614;SDS011;8926;49.720;6.576;2022-11-15T02:58:09;2.57;;;2.40;;
17614;SDS011;8926;49.720;6.576;2022-11-15T03:01:05;3.33;;;3.13;;
17614;SDS011;8926;49.720;6.576;2022-11-15T03:06:58;2.90;;;2.70;;
17614;SDS011;8926;49.720;6.576;2022-11-15T03:17:27;2.70;;;2.50;;
17614;SDS011;8926;49.720;6.576;2022-11-15T03:20:00;2.80;;;2.60;;
17614;SDS011;8926;49.720;6.576;2022-11-15T03:22:29;2.87;;;2.67;;
17614;SDS011;8926;49.720;6.576;2022-11-15T03:24:58;2.53;;;2.33;;
17614;SDS011;8926;49.720;6.576;2022-11-15T03:27:28;2.07;;;1.97;;
17614;SDS011;8926;49.720;6.576;2022-11-15T03:29:59;2.17;;;1.83;;
17614;SDS011;8926;49.720;6.576;2022-11-15T03:32:29;2.00;;;1.90;;
17614;SDS011;8926;49.720;6.576;2022-11-15T03:34:58;2.03;;;1.93;;
17614;SDS011;8926;49.720;6.576;2022-11-15T03:37:30;2.00;;;1.90;;
17614;SDS011;8926;49.720;6.576;2022-11-15T03:40:02;1.77;;;1.67;;
17614;SDS011;8926;49.720;6.576;2022-11-15T03:42:39;2.03;;;1.93;;
17614;SDS011;8926;49.720;6.576;2022-11-15T03:45:16;2.30;;;2.10;;
17614;SDS011;8926;49.720;6.576;2022-11-15T03:47:49;1.80;;;1.70;;
17614;SDS011;8926;49.720;6.576;2022-11-15T03:50:19;1.70;;;1.60;;
17614;SDS011;8926;49.720;6.576;2022-11-15T03:52:46;2.20;;;1.93;;
17614;SDS011;8926;49.720;6.576;2022-11-15T03:55:15;2.83;;;2.07;;
17614;SDS011;8926;49.720;6.576;2022-11-15T03:57:43;1.70;;;1.60;;
17614;SDS011;8926;49.720;6.576;2022-11-15T04:00:09;1.70;;;1.60;;
17614;SDS011;8926;49.720;6.576;2022-11-15T04:02:35;1.70;;;1.60;;
17614;SDS011;8926;49.720;6.576;2022-11-15T04:05:00;1.87;;;1.77;;
17614;SDS011;8926;49.720;6.576;2022-11-15T04:07:25;1.53;;;1.47;;
17614;SDS011;8926;49.720;6.576;2022-11-15T04:09:51;1.70;;;1.60;;
17614;SDS011;8926;49.720;6.576;2022-11-15T04:12:38;1.60;;;1.50;;
17614;SDS011;8926;49.720;6.576;2022-11-15T04:15:08;1.87;;;1.77;;
17614;SDS011;8926;49.720;6.576;2022-11-15T04:20:04;2.30;;;2.20;;
17614;SDS011;8926;49.720;6.576;2022-11-15T04:22:54;1.87;;;1.77;;
17614;SDS011;8926;49.720;6.576;2022-11-15T04:25:41;1.87;;;1.77;;
17614;SDS011;8926;49.720;6.576;2022-11-15T04:28:08;1.87;;;1.70;;
17614;SDS011;8926;49.720;6.576;2022-11-15T04:30:33;1.60;;;1.50;;
17614;SDS011;8926;49.720;6.576;2022-11-15T04:32:58;1.97;;;1.80;;
17614;SDS011;8926;49.720;6.576;2022-11-15T04:35:24;1.90;;;1.80;;
17614;SDS011;8926;49.720;6.576;2022-11-15T04:37:49;1.93;;;1.83;;
17614;SDS011;8926;49.720;6.576;2022-11-15T04:40:15;2.10;;;1.90;;
17614;SDS011;8926;49.720;6.576;2022-11-15T04:42:40;1.70;;;1.60;;
17614;SDS011;8926;49.720;6.576;2022-11-15T04:45:08;1.60;;;1.50;;
17614;SDS011;8926;49.720;6.576;2022-11-15T04:47:34;1.60;;;1.50;;
17614;SDS011;8926;49.720;6.576;2022-11-15T04:49:59;1.97;;;1.87;;
17614;SDS011;8926;49.720;6.576;2022-11-15T04:52:24;2.33;;;2.13;;
17614;SDS011;8926;49.720;6.576;2022-11-15T04:54:50;2.10;;;2.00;;
17614;SDS011;8926;49.720;6.576;2022-11-15T04:57:15;1.83;;;1.73;;
17614;SDS011;8926;49.720;6.576;2022-11-15T04:59:40;2.20;;;2.10;;
17614;SDS011;8926;49.720;6.576;2022-11-15T05:02:05;2.40;;;2.30;;
17614;SDS011;8926;49.720;6.576;2022-11-15T05:04:31;2.40;;;2.20;;
17614;SDS011;8926;49.720;6.576;2022-11-15T05:06:56;2.70;;;2.50;;
17614;SDS011;8926;49.720;6.576;2022-11-15T05:09:21;3.00;;;2.80;;
17614;SDS011;8926;49.720;6.576;2022-11-15T05:11:47;2.90;;;2.70;;
17614;SDS011;8926;49.720;6.576;2022-11-15T05:14:12;3.50;;;3.20;;
17614;SDS011;8926;49.720;6.576;2022-11-15T05:16:38;3.00;;;2.80;;
17614;SDS011;8926;49.720;6.576;2022-11-15T05:19:03;3.37;;;2.97;;
17614;SDS011;8926;49.720;6.576;2022-11-15T05:21:29;3.27;;;3.00;;
17614;SDS011;8926;49.720;6.576;2022-11-15T05:23:55;3.07;;;2.77;;
17614;SDS011;8926;49.720;6.576;2022-11-15T05:26:20;3.70;;;3.40;;
17614;SDS011;8926;49.720;6.576;2022-11-15T05:28:45;3.40;;;3.20;;
17614;SDS011;8926;49.720;6.576;2022-11-15T05:31:12;2.70;;;2.60;;
17614;SDS011;8926;49.720;6.576;2022-11-15T05:33:39;3.20;;;3.00;;
17614;SDS011;8926;49.720;6.576;2022-11-15T05:38:49;2.43;;;2.20;;
17614;SDS011;8926;49.720;6.576;2022-11-15T05:41:15;2.27;;;2.17;;
17614;SDS011;8926;49.720;6.576;2022-11-15T05:43:44;3.20;;;3.00;;
17614;SDS011;8926;49.720;6.576;2022-11-15T05:46:10;2.60;;;2.50;;
17614;SDS011;8926;49.720;6.576;2022-11-15T05:48:37;2.87;;;2.67;;
17614;SDS011;8926;49.720;6.576;2022-11-15T05:51:06;3.10;;;2.90;;
17614;SDS011;8926;49.720;6.576;2022-11-15T05:53:32;2.87;;;2.67;;
17614;SDS011;8926;49.720;6.576;2022-11-15T05:55:58;3.20;;;3.00;;
17614;SDS011;8926;49.720;6.576;2022-11-15T05:58:23;2.97;;;2.67;;
17614;SDS011;8926;49.720;6.576;2022-11-15T06:00:48;3.00;;;2.80;;
17614;SDS011;8926;49.720;6.576;2022-11-15T06:03:13;2.87;;;2.60;;
17614;SDS011;8926;49.720;6.576;2022-11-15T06:05:39;2.60;;;2.40;;
17614;SDS011;8926;49.720;6.576;2022-11-15T06:08:05;2.33;;;2.23;;
17614;SDS011;8926;49.720;6.576;2022-11-15T06:10:30;2.17;;;2.07;;
17614;SDS011;8926;49.720;6.576;2022-11-15T06:12:59;2.87;;;2.67;;
17614;SDS011;8926;49.720;6.576;2022-11-15T06:15:25;2.80;;;2.60;;
17614;SDS011;8926;49.720;6.576;2022-11-15T06:17:50;2.30;;;2.20;;
17614;SDS011;8926;49.720;6.576;2022-11-15T06:20:16;2.63;;;2.43;;
17614;SDS011;8926;49.720;6.576;2022-11-15T06:22:42;2.20;;;2.10;;
17614;SDS011;8926;49.720;6.576;2022-11-15T06:25:07;1.60;;;1.50;;
17614;SDS011;8926;49.720;6.576;2022-11-15T06:27:32;2.10;;;2.00;;
17614;SDS011;8926;49.720;6.576;2022-11-15T06:29:58;2.33;;;2.10;;
17614;SDS011;8926;49.720;6.576;2022-11-15T06:32:23;1.70;;;1.60;;
17614;SDS011;8926;49.720;6.576;2022-11-15T06:34:48;2.10;;;1.90;;
17614;SDS011;8926;49.720;6.576;2022-11-15T06:37:14;1.70;;;1.60;;
17614;SDS011;8926;49.720;6.576;2022-11-15T06:39:40;1.27;;;1.23;;
17614;SDS011;8926;49.720;6.576;2022-11-15T06:42:05;1.47;;;1.47;;
17614;SDS011;8926;49.720;6.576;2022-11-15T06:44:30;1.30;;;1.20;;
17614;SDS011;8926;49.720;6.576;2022-11-15T06:46:55;1.47;;;1.37;;
17614;SDS011;8926;49.720;6.576;2022-11-15T06:49:21;1.00;;;1.00;;
17614;SDS011;8926;49.720;6.576;2022-11-15T06:51:46;0.97;;;0.97;;
17614;SDS011;8926;49.720;6.576;2022-11-15T06:54:11;1.20;;;1.10;;
17614;SDS011;8926;49.720;6.576;2022-11-15T06:56:36;0.93;;;0.93;;
17614;SDS011;8926;49.720;6.576;2022-11-15T06:59:02;1.03;;;1.03;;
17614;SDS011;8926;49.720;6.576;2022-11-15T07:01:27;1.10;;;1.10;;
17614;SDS011;8926;49.720;6.576;2022-11-15T07:03:52;0.90;;;0.90;;
17614;SDS011;8926;49.720;6.576;2022-11-15T07:06:18;1.00;;;1.00;;
17614;SDS011;8926;49.720;6.576;2022-11-15T07:08:43;0.83;;;0.83;;
17614;SDS011;8926;49.720;6.576;2022-11-15T07:11:08;0.83;;;0.83;;
17614;SDS011;8926;49.720;6.576;2022-11-15T07:13:34;0.90;;;0.90;;
17614;SDS011;8926;49.720;6.576;2022-11-15T07:16:02;1.43;;;1.17;;
17614;SDS011;8926;49.720;6.576;2022-11-15T07:18:29;1.10;;;1.00;;
17614;SDS011;8926;49.720;6.576;2022-11-15T07:20:55;0.80;;;0.80;;
17614;SDS011;8926;49.720;6.576;2022-11-15T07:23:20;0.77;;;0.77;;
17614;SDS011;8926;49.720;6.576;2022-11-15T07:25:45;1.33;;;1.23;;
17614;SDS011;8926;49.720;6.576;2022-11-15T07:28:10;1.13;;;1.10;;
17614;SDS011;8926;49.720;6.576;2022-11-15T07:30:36;0.80;;;0.80;;
17614;SDS011;8926;49.720;6.576;2022-11-15T07:33:01;1.07;;;0.93;;
17614;SDS011;8926;49.720;6.576;2022-11-15T07:35:27;0.70;;;0.70;;
17614;SDS011;8926;49.720;6.576;2022-11-15T07:38:02;0.87;;;0.87;;
17614;SDS011;8926;49.720;6.576;2022-11-15T07:40:28;0.70;;;0.70;;
17614;SDS011;8926;49.720;6.576;2022-11-15T07:42:59;0.90;;;0.90;;
17614;SDS011;8926;49.720;6.576;2022-11-15T07:45:25;1.30;;;1.20;;
17614;SDS011;8926;49.720;6.576;2022-11-15T07:47:51;0.70;;;0.70;;
17614;SDS011;8926;49.720;6.576;2022-11-15T07:50:17;0.80;;;0.80;;
17614;SDS011;8926;49.720;6.576;2022-11-15T07:52:43;1.20;;;1.10;;
17614;SDS011;8926;49.720;6.576;2022-11-15T07:55:08;1.10;;;1.10;;
17614;SDS011;8926;49.720;6.576;2022-11-15T07:57:34;0.87;;;0.87;;
17614;SDS011;8926;49.720;6.576;2022-11-15T07:59:59;1.00;;;1.00;;
17614;SDS011;8926;49.720;6.576;2022-11-15T08:02:24;1.30;;;1.20;;
17614;SDS011;8926;49.720;6.576;2022-11-15T08:04:50;1.57;;;1.47;;
17614;SDS011;8926;49.720;6.576;2022-11-15T08:07:15;1.70;;;1.60;;
17614;SDS011;8926;49.720;6.576;2022-11-15T08:09:40;1.10;;;1.10;;
17614;SDS011;8926;49.720;6.576;2022-11-15T08:12:05;1.33;;;1.23;;
17614;SDS011;8926;49.720;6.576;2022-11-15T08:14:31;1.40;;;1.30;;
17614;SDS011;8926;49.720;6.576;2022-11-15T08:16:56;1.13;;;1.13;;
17614;SDS011;8926;49.720;6.576;2022-11-15T08:19:21;1.10;;;1.10;;
17614;SDS011;8926;49.720;6.576;2022-11-15T08:21:47;1.37;;;1.27;;
17614;SDS011;8926;49.720;6.576;2022-11-15T08:24:12;1.20;;;1.00;;
17614;SDS011;8926;49.720;6.576;2022-11-15T08:26:37;1.20;;;1.10;;
17614;SDS011;8926;49.720;6.576;2022-11-15T08:29:03;2.40;;;1.20;;
17614;SDS011;8926;49.720;6.576;2022-11-15T08:31:28;1.17;;;1.07;;
17614;SDS011;8926;49.720;6.576;2022-11-15T08:33:54;1.23;;;1.00;;
17614;SDS011;8926;49.720;6.576;2022-11-15T08:36:19;1.00;;;1.00;;
17614;SDS011;8926;49.720;6.576;2022-11-15T08:38:45;1.13;;;1.13;;
17614;SDS011;8926;49.720;6.576;2022-11-15T08:41:12;1.53;;;1.43;;
17614;SDS011;8926;49.720;6.576;2022-11-15T08:43:50;1.20;;;1.13;;
17614;SDS011;8926;49.720;6.576;2022-11-15T08:46:15;1.30;;;1.23;;
17614;SDS011;8926;49.720;6.576;2022-11-15T08:48:40;1.20;;;1.10;;
17614;SDS011;8926;49.720;6.576;2022-11-15T08:51:06;1.50;;;1.40;;
17614;SDS011;8926;49.720;6.576;2022-11-15T08:53:31;1.13;;;1.13;;
17614;SDS011;8926;49.720;6.576;2022-11-15T08:55:56;1.27;;;1.27;;
17614;SDS011;8926;49.720;6.576;2022-11-15T08:58:22;1.47;;;1.37;;
17614;SDS011;8926;49.720;6.576;2022-11-15T09:00:47;1.40;;;1.30;;
17614;SDS011;8926;49.720;6.576;2022-11-15T09:03:12;1.47;;;1.37;;
17614;SDS011;8926;49.720;6.576;2022-11-15T09:05:38;0.97;;;0.97;;
17614;SDS011;8926;49.720;6.576;2022-11-15T09:08:03;1.13;;;1.13;;
17614;SDS011;8926;49.720;6.576;2022-11-15T09:10:29;1.03;;;1.03;;
17614;SDS011;8926;49.720;6.576;2022-11-15T09:12:56;0.97;;;0.97;;
17614;SDS011;8926;49.720;6.576;2022-11-15T09:15:22;0.97;;;0.97;;
17614;SDS011;8926;49.720;6.576;2022-11-15T09:17:47;1.10;;;1.10;;
17614;SDS011;8926;49.720;6.576;2022-11-15T09:20:12;1.10;;;1.10;;
17614;SDS011;8926;49.720;6.576;2022-11-15T09:22:37;1.30;;;1.30;;
17614;SDS011;8926;49.720;6.576;2022-11-15T09:25:04;2.13;;;1.93;;
17614;SDS011;8926;49.720;6.576;2022-11-15T09:27:30;1.90;;;1.80;;
17614;SDS011;8926;49.720;6.576;2022-11-15T09:29:55;1.80;;;1.70;;
17614;SDS011;8926;49.720;6.576;2022-11-15T09:32:21;1.60;;;1.50;;
17614;SDS011;8926;49.720;6.576;2022-11-15T09:34:48;1.20;;;1.20;;
17614;SDS011;8926;49.720;6.576;2022-11-15T09:37:14;2.00;;;1.80;;
17614;SDS011;8926;49.720;6.576;2022-11-15T09:39:39;1.90;;;1.80;;
17614;SDS011;8926;49.720;6.576;2022-11-15T09:42:17;1.93;;;1.83;;
17614;SDS011;8926;49.720;6.576;2022-11-15T09:44:59;2.60;;;2.40;;
17614;SDS011;8926;49.720;6.576;2022-11-15T09:50:31;2.90;;;2.70;;
17614;SDS011;8926;49.720;6.576;2022-11-15T09:53:03;2.80;;;2.70;;
17614;SDS011;8926;49.720;6.576;2022-11-15T09:55:40;3.20;;;3.00;;
17614;SDS011;8926;49.720;6.576;2022-11-15T09:58:24;3.10;;;2.90;;
17614;SDS011;8926;49.720;6.576;2022-11-15T10:00:57;3.33;;;3.13;;
17614;SDS011;8926;49.720;6.576;2022-11-15T10:03:29;3.40;;;3.10;;
17614;SDS011;8926;49.720;6.576;2022-11-15T10:06:00;4.90;;;3.63;;
17614;SDS011;8926;49.720;6.576;2022-11-15T10:11:22;3.50;;;3.20;;
17614;SDS011;8926;49.720;6.576;2022-11-15T10:13:50;4.90;;;3.10;;
17614;SDS011;8926;49.720;6.576;2022-11-15T10:24:49;3.20;;;3.00;;
17614;SDS011;8926;49.720;6.576;2022-11-15T10:27:23;3.03;;;2.37;;
17614;SDS011;8926;49.720;6.576;2022-11-15T10:29:49;2.60;;;2.40;;
17614;SDS011;8926;49.720;6.576;2022-11-15T10:32:19;2.73;;;2.50;;
17614;SDS011;8926;49.720;6.576;2022-11-15T10:34:46;2.90;;;2.70;;
17614;SDS011;8926;49.720;6.576;2022-11-15T10:37:26;3.50;;;3.20;;
17614;SDS011;8926;49.720;6.576;2022-11-15T10:40:13;3.33;;;3.13;;
17614;SDS011;8926;49.720;6.576;2022-11-15T10:42:44;2.73;;;2.53;;
17614;SDS011;8926;49.720;6.576;2022-11-15T10:45:23;3.00;;;2.80;;
17614;SDS011;8926;49.720;6.576;2022-11-15T10:47:49;3.90;;;3.07;;
17614;SDS011;8926;49.720;6.576;2022-11-15T10:50:48;2.80;;;2.50;;
17614;SDS011;8926;49.720;6.576;2022-11-15T10:53:12;3.33;;;3.00;;
17614;SDS011;8926;49.720;6.576;2022-11-15T10:55:48;2.43;;;2.23;;
17614;SDS011;8926;49.720;6.576;2022-11-15T10:58:29;2.60;;;2.40;;
17614;SDS011;8926;49.720;6.576;2022-11-15T11:01:17;2.60;;;2.40;;
17614;SDS011;8926;49.720;6.576;2022-11-15T11:03:44;3.30;;;2.50;;
17614;SDS011;8926;49.720;6.576;2022-11-15T11:06:22;2.07;;;1.90;;
17614;SDS011;8926;49.720;6.576;2022-11-15T11:11:19;2.47;;;2.37;;
17614;SDS011;8926;49.720;6.576;2022-11-15T11:13:44;2.83;;;2.13;;
17614;SDS011;8926;49.720;6.576;2022-11-15T11:18:40;2.73;;;2.47;;
17614;SDS011;8926;49.720;6.576;2022-11-15T11:26:55;2.30;;;2.10;;
17614;SDS011;8926;49.720;6.576;2022-11-15T11:29:52;2.40;;;2.20;;
17614;SDS011;8926;49.720;6.576;2022-11-15T11:32:27;1.77;;;1.67;;
17614;SDS011;8926;49.720;6.576;2022-11-15T11:35:17;1.80;;;1.70;;
17614;SDS011;8926;49.720;6.576;2022-11-15T11:43:36;1.60;;;1.50;;
17614;SDS011;8926;49.720;6.576;2022-11-15T11:49:01;2.03;;;1.70;;
17614;SDS011;8926;49.720;6.576;2022-11-15T11:51:33;1.90;;;1.30;;
17614;SDS011;8926;49.720;6.576;2022-11-15T11:54:22;1.90;;;1.33;;
17614;SDS011;8926;49.720;6.576;2022-11-15T11:56:50;1.50;;;1.40;;
17614;SDS011;8926;49.720;6.576;2022-11-15T12:01:48;2.10;;;1.50;;
17614;SDS011;8926;49.720;6.576;2022-11-15T12:04:14;1.50;;;1.37;;
17614;SDS011;8926;49.720;6.576;2022-11-15T12:06:52;1.83;;;1.40;;
17614;SDS011;8926;49.720;6.576;2022-11-15T12:09:26;1.50;;;1.40;;
17614;SDS011;8926;49.720;6.576;2022-11-15T12:12:06;1.20;;;1.20;;
17614;SDS011;8926;49.720;6.576;2022-11-15T12:14:40;1.70;;;1.60;;
17614;SDS011;8926;49.720;6.576;2022-11-15T12:17:29;3.20;;;2.23;;
17614;SDS011;8926;49.720;6.576;2022-11-15T12:19:59;1.60;;;1.50;;
17614;SDS011;8926;49.720;6.576;2022-11-15T12:22:31;1.60;;;1.50;;
17614;SDS011;8926;49.720;6.576;2022-11-15T12:25:20;1.50;;;1.40;;
17614;SDS011;8926;49.720;6.576;2022-11-15T12:30:53;1.17;;;1.07;;
17614;SDS011;8926;49.720;6.576;2022-11-15T12:33:34;1.73;;;1.50;;
17614;SDS011;8926;49.720;6.576;2022-11-15T12:36:08;1.20;;;1.10;;
17614;SDS011;8926;49.720;6.576;2022-11-15T12:38:58;1.03;;;0.93;;
17614;SDS011;8926;49.720;6.576;2022-11-15T12:41:31;1.17;;;1.03;;
17614;SDS011;8926;49.720;6.576;2022-11-15T12:43:58;1.30;;;1.20;;
17614;SDS011;8926;49.720;6.576;2022-11-15T12:48:55;0.93;;;0.93;;
17614;SDS011;8926;49.720;6.576;2022-11-15T12:52:07;1.07;;;1.00;;
17614;SDS011;8926;49.720;6.576;2022-11-15T12:59:50;1.07;;;0.97;;
17614;SDS011;8926;49.720;6.576;2022-11-15T13:02:47;1.20;;;1.10;;
17614;SDS011;8926;49.720;6.576;2022-11-15T13:17:54;0.73;;;0.73;;
17614;SDS011;8926;49.720;6.576;2022-11-15T13:23:12;0.77;;;0.77;;
17614;SDS011;8926;49.720;6.576;2022-11-15T13:30:59;0.83;;;0.83;;
17614;SDS011;8926;49.720;6.576;2022-11-15T13:36:03;0.87;;;0.87;;
17614;SDS011;8926;49.720;6.576;2022-11-15T13:38:34;0.80;;;0.80;;
17614;SDS011;8926;49.720;6.576;2022-11-15T13:41:16;1.50;;;1.37;;
17614;SDS011;8926;49.720;6.576;2022-11-15T13:43:45;1.40;;;1.30;;
17614;SDS011;8926;49.720;6.576;2022-11-15T13:46:12;0.90;;;0.90;;
17614;SDS011;8926;49.720;6.576;2022-11-15T13:48:54;1.07;;;1.07;;
17614;SDS011;8926;49.720;6.576;2022-11-15T13:54:02;1.23;;;1.13;;
17614;SDS011;8926;49.720;6.576;2022-11-15T13:56:46;2.23;;;1.37;;
17614;SDS011;8926;49.720;6.576;2022-11-15T13:59:21;1.80;;;1.53;;
17614;SDS011;8926;49.720;6.576;2022-11-15T14:01:56;1.00;;;1.00;;
17614;SDS011;8926;49.720;6.576;2022-11-15T14:04:26;1.50;;;1.30;;
17614;SDS011;8926;49.720;6.576;2022-11-15T14:06:58;1.60;;;1.50;;
17614;SDS011;8926;49.720;6.576;2022-11-15T14:09:33;1.50;;;1.40;;
17614;SDS011;8926;49.720;6.576;2022-11-15T14:12:20;1.60;;;1.50;;
17614;SDS011;8926;49.720;6.576;2022-11-15T14:14:48;1.77;;;1.67;;
17614;SDS011;8926;49.720;6.576;2022-11-15T14:17:21;1.30;;;1.20;;
17614;SDS011;8926;49.720;6.576;2022-11-15T14:19:58;1.40;;;1.30;;
17614;SDS011;8926;49.720;6.576;2022-11-15T14:22:24;1.37;;;1.27;;
17614;SDS011;8926;49.720;6.576;2022-11-15T14:27:40;1.27;;;1.20;;
17614;SDS011;8926;49.720;6.576;2022-11-15T14:30:12;1.10;;;1.10;;
17614;SDS011;8926;49.720;6.576;2022-11-15T14:32:44;1.40;;;1.30;;
17614;SDS011;8926;49.720;6.576;2022-11-15T14:35:18;1.23;;;1.00;;
17614;SDS011;8926;49.720;6.576;2022-11-15T14:37:46;0.90;;;0.90;;
17614;SDS011;8926;49.720;6.576;2022-11-15T14:40:13;1.10;;;1.10;;
17614;SDS011;8926;49.720;6.576;2022-11-15T14:42:41;1.07;;;0.97;;
17614;SDS011;8926;49.720;6.576;2022-11-15T14:45:17;1.13;;;1.13;;
17614;SDS011;8926;49.720;6.576;2022-11-15T14:47:46;1.30;;;1.20;;
17614;SDS011;8926;49.720;6.576;2022-11-15T14:50:15;0.80;;;0.80;;
17614;SDS011;8926;49.720;6.576;2022-11-15T14:52:43;1.10;;;1.10;;
17614;SDS011;8926;49.720;6.576;2022-11-15T14:55:20;1.07;;;1.07;;
17614;SDS011;8926;49.720;6.576;2022-11-15T14:57:48;0.97;;;0.90;;
17614;SDS011;8926;49.720;6.576;2022-11-15T15:00:14;0.90;;;0.90;;
17614;SDS011;8926;49.720;6.576;2022-11-15T15:02:40;0.90;;;0.90;;
17614;SDS011;8926;49.720;6.576;2022-11-15T15:07:57;0.80;;;0.80;;
17614;SDS011;8926;49.720;6.576;2022-11-15T15:10:22;1.53;;;1.20;;
17614;SDS011;8926;49.720;6.576;2022-11-15T15:12:49;1.60;;;1.50;;
17614;SDS011;8926;49.720;6.576;2022-11-15T15:15:15;1.20;;;1.10;;
17614;SDS011;8926;49.720;6.576;2022-11-15T15:17:49;0.93;;;0.93;;
17614;SDS011;8926;49.720;6.576;2022-11-15T15:20:14;1.07;;;0.97;;
17614;SDS011;8926;49.720;6.576;2022-11-15T15:22:40;1.07;;;0.97;;
17614;SDS011;8926;49.720;6.576;2022-11-15T15:25:17;1.10;;;1.10;;
17614;SDS011;8926;49.720;6.576;2022-11-15T15:27:45;1.20;;;1.17;;
17614;SDS011;8926;49.720;6.576;2022-11-15T15:30:11;1.57;;;1.20;;
17614;SDS011;8926;49.720;6.576;2022-11-15T15:32:36;1.00;;;1.00;;
17614;SDS011;8926;49.720;6.576;2022-11-15T15:35:01;0.90;;;0.90;;
17614;SDS011;8926;49.720;6.576;2022-11-15T15:37:34;0.87;;;0.87;;
17614;SDS011;8926;49.720;6.576;2022-11-15T15:39:59;1.00;;;1.00;;
17614;SDS011;8926;49.720;6.576;2022-11-15T15:42:25;1.47;;;1.37;;
17614;SDS011;8926;49.720;6.576;2022-11-15T15:44:50;1.40;;;1.30;;
17614;SDS011;8926;49.720;6.576;2022-11-15T15:47:20;1.60;;;1.40;;
17614;SDS011;8926;49.720;6.576;2022-11-15T15:49:47;1.33;;;1.30;;
17614;SDS011;8926;49.720;6.576;2022-11-15T15:52:13;1.30;;;1.30;;
17614;SDS011;8926;49.720;6.576;2022-11-15T15:54:39;1.37;;;1.37;;
17614;SDS011;8926;49.720;6.576;2022-11-15T15:57:04;2.17;;;1.70;;
17614;SDS011;8926;49.720;6.576;2022-11-15T15:59:30;1.93;;;1.83;;
17614;SDS011;8926;49.720;6.576;2022-11-15T16:01:56;2.27;;;2.17;;
17614;SDS011;8926;49.720;6.576;2022-11-15T16:04:21;1.80;;;1.70;;
17614;SDS011;8926;49.720;6.576;2022-11-15T16:06:46;1.90;;;1.73;;
17614;SDS011;8926;49.720;6.576;2022-11-15T16:09:16;1.83;;;1.73;;
17614;SDS011;8926;49.720;6.576;2022-11-15T16:11:46;1.77;;;1.67;;
17614;SDS011;8926;49.720;6.576;2022-11-15T16:14:12;1.40;;;1.30;;
17614;SDS011;8926;49.720;6.576;2022-11-15T16:16:37;1.80;;;1.70;;
17614;SDS011;8926;49.720;6.576;2022-11-15T16:19:03;1.20;;;1.20;;
17614;SDS011;8926;49.720;6.576;2022-11-15T16:21:29;1.30;;;1.30;;
17614;SDS011;8926;49.720;6.576;2022-11-15T16:23:54;1.60;;;1.50;;
17614;SDS011;8926;49.720;6.576;2022-11-15T16:26:21;2.67;;;2.50;;
17614;SDS011;8926;49.720;6.576;2022-11-15T16:28:49;2.20;;;2.10;;
17614;SDS011;8926;49.720;6.576;2022-11-15T16:31:14;2.03;;;1.90;;
17614;SDS011;8926;49.720;6.576;2022-11-15T16:33:41;1.90;;;1.80;;
17614;SDS011;8926;49.720;6.576;2022-11-15T16:36:20;2.03;;;1.93;;
17614;SDS011;8926;49.720;6.576;2022-11-15T16:38:49;2.33;;;2.23;;
17614;SDS011;8926;49.720;6.576;2022-11-15T16:41:16;2.47;;;2.27;;
17614;SDS011;8926;49.720;6.576;2022-11-15T16:43:46;2.33;;;2.23;;
17614;SDS011;8926;49.720;6.576;2022-11-15T16:46:13;2.23;;;2.13;;
17614;SDS011;8926;49.720;6.576;2022-11-15T16:48:42;2.00;;;1.90;;
17614;SDS011;8926;49.720;6.576;2022-11-15T16:51:07;1.90;;;1.80;;
17614;SDS011;8926;49.720;6.576;2022-11-15T16:53:33;1.60;;;1.50;;
17614;SDS011;8926;49.720;6.576;2022-11-15T16:55:58;1.70;;;1.60;;
17614;SDS011;8926;49.720;6.576;2022-11-15T16:58:24;1.57;;;1.50;;
17614;SDS011;8926;49.720;6.576;2022-11-15T17:00:50;1.57;;;1.43;;
17614;SDS011;8926;49.720;6.576;2022-11-15T17:03:17;1.20;;;1.10;;
17614;SDS011;8926;49.720;6.576;2022-11-15T17:05:42;1.20;;;1.20;;